sensor_id;sensor_type;location;lat;lon;timestamp;temperature;humidity
2913;DHT22;1466;48.778;9.166;2023-07-02T00:02:20;19.80;99.90
2913;DHT22;1466;48.778;9.166;2023-07-02T00:04:46;19.70;99.90
2913;DHT22;1466;48.778;9.166;2023-07-02T00:07:12;19.80;99.90
2913;DHT22;1466;48.778;9.166;2023-07-02T00:09:38;19.80;99.90
2913;DHT22;1466;48.778;9.166;2023-07-02T00:12:03;19.90;99.90
2913;DHT22;1466;48.778;9.166;2023-07-02T00:14:29;19.90;99.90
2913;DHT22;1466;48.778;9.166;2023-07-02T00:16:55;19.90;99.90
2913;DHT22;1466;48.778;9.166;2023-07-02T00:19:20;19.90;99.90
2913;DHT22;1466;48.778;9.166;2023-07-02T00:21:46;19.90;99.90
2913;DHT22;1466;48.778;9.166;2023-07-02T00:24:13;19.90;99.90
2913;DHT22;1466;48.778;9.166;2023-07-02T00:26:38;20.00;99.90
2913;DHT22;1466;48.778;9.166;2023-07-02T00:29:05;20.00;99.90
2913;DHT22;1466;48.778;9.166;2023-07-02T00:31:31;20.00;99.90
2913;DHT22;1466;48.778;9.166;2023-07-02T00:33:57;20.00;99.90
2913;DHT22;1466;48.778;9.166;2023-07-02T00:36:22;20.00;99.90
2913;DHT22;1466;48.778;9.166;2023-07-02T00:38:48;20.00;99.90
2913;DHT22;1466;48.778;9.166;2023-07-02T00:41:15;19.90;99.90
2913;DHT22;1466;48.778;9.166;2023-07-02T00:43:41;19.80;99.90
2913;DHT22;1466;48.778;9.166;2023-07-02T00:46:17;19.80;99.90
2913;DHT22;1466;48.778;9.166;2023-07-02T00:48:53;19.80;99.90
2913;DHT22;1466;48.778;9.166;2023-07-02T00:51:24;19.70;99.90
2913;DHT22;1466;48.778;9.166;2023-07-02T00:53:52;19.70;99.90
2913;DHT22;1466;48.778;9.166;2023-07-02T00:56:21;19.70;99.90
2913;DHT22;1466;48.778;9.166;2023-07-02T00:58:48;19.70;99.90
2913;DHT22;1466;48.778;9.166;2023-07-02T01:01:26;19.80;99.90
2913;DHT22;1466;48.778;9.166;2023-07-02T01:04:05;19.80;99.90
2913;DHT22;1466;48.778;9.166;2023-07-02T01:06:34;19.90;99.90
2913;DHT22;1466;48.778;9.166;2023-07-02T01:09:04;19.90;99.90
2913;DHT22;1466;48.778;9.166;2023-07-02T01:11:49;20.00;99.90
2913;DHT22;1466;48.778;9.166;2023-07-02T01:16:48;20.10;99.90
2913;DHT22;1466;48.778;9.166;2023-07-02T01:19:21;20.10;99.90
2913;DHT22;1466;48.778;9.166;2023-07-02T01:21:49;20.10;99.90
2913;DHT22;1466;48.778;9.166;2023-07-02T01:24:16;20.10;99.90
2913;DHT22;1466;48.778;9.166;2023-07-02T01:26:42;20.10;99.90
2913;DHT22;1466;48.778;9.166;2023-07-02T01:29:19;20.00;99.90
2913;DHT22;1466;48.778;9.166;2023-07-02T01:31:46;20.00;99.90
2913;DHT22;1466;48.778;9.166;2023-07-02T01:34:13;20.00;99.90
2913;DHT22;1466;48.778;9.166;2023-07-02T01:36:39;20.00;99.90
2913;DHT22;1466;48.778;9.166;2023-07-02T01:39:05;19.90;99.90
2913;DHT22;1466;48.778;9.166;2023-07-02T01:44:09;19.90;99.90
2913;DHT22;1466;48.778;9.166;2023-07-02T01:46:35;19.80;99.90
2913;DHT22;1466;48.778;9.166;2023-07-02T01:49:01;19.80;99.90
2913;DHT22;1466;48.778;9.166;2023-07-02T01:51:26;19.80;99.90
2913;DHT22;1466;48.778;9.166;2023-07-02T01:53:52;19.80;99.90
2913;DHT22;1466;48.778;9.166;2023-07-02T01:56:18;19.80;99.90
2913;DHT22;1466;48.778;9.166;2023-07-02T01:58:43;19.70;99.90
2913;DHT22;1466;48.778;9.166;2023-07-02T02:01:09;19.80;99.90
2913;DHT22;1466;48.778;9.166;2023-07-02T02:03:35;19.80;99.90
2913;DHT22;1466;48.778;9.166;2023-07-02T02:06:00;19.80;99.90
2913;DHT22;1466;48.778;9.166;2023-07-02T02:08:26;19.70;99.90
2913;DHT22;1466;48.778;9.166;2023-07-02T02:10:52;19.70;99.90
2913;DHT22;1466;48.778;9.166;2023-07-02T02:13:17;19.70;99.90
2913;DHT22;1466;48.778;9.166;2023-07-02T02:15:43;19.80;99.90
2913;DHT22;1466;48.778;9.166;2023-07-02T02:18:09;19.80;99.90
2913;DHT22;1466;48.778;9.166;2023-07-02T02:20:34;19.80;99.90
2913;DHT22;1466;48.778;9.166;2023-07-02T02:23:00;19.80;99.90
2913;DHT22;1466;48.778;9.166;2023-07-02T02:25:26;19.70;99.90
2913;DHT22;1466;48.778;9.166;2023-07-02T02:27:51;19.80;99.90
2913;DHT22;1466;48.778;9.166;2023-07-02T02:30:20;19.80;99.90
2913;DHT22;1466;48.778;9.166;2023-07-02T02:32:45;19.80;99.90
2913;DHT22;1466;48.778;9.166;2023-07-02T02:35:11;19.80;99.90
2913;DHT22;1466;48.778;9.166;2023-07-02T02:37:38;19.80;99.90
2913;DHT22;1466;48.778;9.166;2023-07-02T02:40:08;19.90;99.90
2913;DHT22;1466;48.778;9.166;2023-07-02T02:42:35;19.80;99.90
2913;DHT22;1466;48.778;9.166;2023-07-02T02:45:01;19.80;99.90
2913;DHT22;1466;48.778;9.166;2023-07-02T02:47:27;19.90;99.90
2913;DHT22;1466;48.778;9.166;2023-07-02T02:49:52;20.00;99.90
2913;DHT22;1466;48.778;9.166;2023-07-02T02:52:18;20.00;99.90
2913;DHT22;1466;48.778;9.166;2023-07-02T02:54:45;19.90;99.90
2913;DHT22;1466;48.778;9.166;2023-07-02T02:57:11;19.80;99.90
2913;DHT22;1466;48.778;9.166;2023-07-02T02:59:36;19.80;99.90
2913;DHT22;1466;48.778;9.166;2023-07-02T03:02:02;19.70;99.90
2913;DHT22;1466;48.778;9.166;2023-07-02T03:04:28;19.70;99.90
2913;DHT22;1466;48.778;9.166;2023-07-02T03:06:54;19.60;99.90
2913;DHT22;1466;48.778;9.166;2023-07-02T03:09:23;19.60;99.90
2913;DHT22;1466;48.778;9.166;2023-07-02T03:11:49;19.60;99.90
2913;DHT22;1466;48.778;9.166;2023-07-02T03:14:14;19.60;99.90
2913;DHT22;1466;48.778;9.166;2023-07-02T03:16:42;19.70;99.90
2913;DHT22;1466;48.778;9.166;2023-07-02T03:19:08;19.60;99.90
2913;DHT22;1466;48.778;9.166;2023-07-02T03:21:34;19.60;99.90
2913;DHT22;1466;48.778;9.166;2023-07-02T03:23:59;19.50;99.90
2913;DHT22;1466;48.778;9.166;2023-07-02T03:26:25;19.30;99.90
2913;DHT22;1466;48.778;9.166;2023-07-02T03:28:51;19.10;99.90
2913;DHT22;1466;48.778;9.166;2023-07-02T03:31:17;19.00;99.90
2913;DHT22;1466;48.778;9.166;2023-07-02T03:33:42;18.80;99.90
2913;DHT22;1466;48.778;9.166;2023-07-02T03:36:08;18.80;99.90
2913;DHT22;1466;48.778;9.166;2023-07-02T03:38:34;18.70;99.90
2913;DHT22;1466;48.778;9.166;2023-07-02T03:41:00;18.60;99.90
2913;DHT22;1466;48.778;9.166;2023-07-02T03:43:25;18.60;99.90
2913;DHT22;1466;48.778;9.166;2023-07-02T03:45:54;18.50;99.90
2913;DHT22;1466;48.778;9.166;2023-07-02T03:48:20;18.60;99.90
2913;DHT22;1466;48.778;9.166;2023-07-02T03:50:45;18.60;99.90
2913;DHT22;1466;48.778;9.166;2023-07-02T03:53:11;18.70;99.90
2913;DHT22;1466;48.778;9.166;2023-07-02T03:55:37;18.70;99.90
2913;DHT22;1466;48.778;9.166;2023-07-02T03:58:04;18.80;99.90
2913;DHT22;1466;48.778;9.166;2023-07-02T04:00:30;18.70;99.90
2913;DHT22;1466;48.778;9.166;2023-07-02T04:02:56;18.70;99.90
2913;DHT22;1466;48.778;9.166;2023-07-02T04:05:22;18.60;99.90
2913;DHT22;1466;48.778;9.166;2023-07-02T04:07:47;18.60;99.90
2913;DHT22;1466;48.778;9.166;2023-07-02T04:10:13;18.70;99.90
2913;DHT22;1466;48.778;9.166;2023-07-02T04:12:39;18.80;99.90
2913;DHT22;1466;48.778;9.166;2023-07-02T04:15:05;18.80;99.90
2913;DHT22;1466;48.778;9.166;2023-07-02T04:17:31;18.80;99.90
2913;DHT22;1466;48.778;9.166;2023-07-02T04:19:57;18.70;99.90
2913;DHT22;1466;48.778;9.166;2023-07-02T04:22:24;18.70;99.90
2913;DHT22;1466;48.778;9.166;2023-07-02T04:24:50;18.60;99.90
2913;DHT22;1466;48.778;9.166;2023-07-02T04:27:16;18.60;99.90
2913;DHT22;1466;48.778;9.166;2023-07-02T04:29:44;18.70;99.90
2913;DHT22;1466;48.778;9.166;2023-07-02T04:32:10;18.60;99.90
2913;DHT22;1466;48.778;9.166;2023-07-02T04:34:36;18.60;99.90
2913;DHT22;1466;48.778;9.166;2023-07-02T04:37:05;18.60;99.90
2913;DHT22;1466;48.778;9.166;2023-07-02T04:39:31;18.60;99.90
2913;DHT22;1466;48.778;9.166;2023-07-02T04:41:56;18.70;99.90
2913;DHT22;1466;48.778;9.166;2023-07-02T04:44:22;18.80;99.90
2913;DHT22;1466;48.778;9.166;2023-07-02T04:47:01;18.80;99.90
2913;DHT22;1466;48.778;9.166;2023-07-02T04:49:27;18.80;99.90
2913;DHT22;1466;48.778;9.166;2023-07-02T04:51:53;18.80;99.90
2913;DHT22;1466;48.778;9.166;2023-07-02T04:54:20;18.80;99.90
2913;DHT22;1466;48.778;9.166;2023-07-02T04:56:46;18.80;99.90
2913;DHT22;1466;48.778;9.166;2023-07-02T04:59:13;18.80;99.90
2913;DHT22;1466;48.778;9.166;2023-07-02T05:01:38;18.80;99.90
2913;DHT22;1466;48.778;9.166;2023-07-02T05:04:05;18.80;99.90
2913;DHT22;1466;48.778;9.166;2023-07-02T05:06:31;18.90;99.90
2913;DHT22;1466;48.778;9.166;2023-07-02T05:08:56;19.00;99.90
2913;DHT22;1466;48.778;9.166;2023-07-02T05:11:22;19.10;99.90
2913;DHT22;1466;48.778;9.166;2023-07-02T05:13:48;19.10;99.90
2913;DHT22;1466;48.778;9.166;2023-07-02T05:16:14;19.10;99.90
2913;DHT22;1466;48.778;9.166;2023-07-02T05:18:40;19.20;99.90
2913;DHT22;1466;48.778;9.166;2023-07-02T05:21:06;19.30;99.90
2913;DHT22;1466;48.778;9.166;2023-07-02T05:23:32;19.40;99.90
2913;DHT22;1466;48.778;9.166;2023-07-02T05:25:57;19.40;99.90
2913;DHT22;1466;48.778;9.166;2023-07-02T05:28:24;19.50;99.90
2913;DHT22;1466;48.778;9.166;2023-07-02T05:30:50;19.50;99.90
2913;DHT22;1466;48.778;9.166;2023-07-02T05:33:16;19.50;99.90
2913;DHT22;1466;48.778;9.166;2023-07-02T05:35:41;19.50;99.90
2913;DHT22;1466;48.778;9.166;2023-07-02T05:38:07;19.50;99.90
2913;DHT22;1466;48.778;9.166;2023-07-02T05:40:33;19.60;99.90
2913;DHT22;1466;48.778;9.166;2023-07-02T05:42:58;19.50;99.90
2913;DHT22;1466;48.778;9.166;2023-07-02T05:45:24;19.50;99.90
2913;DHT22;1466;48.778;9.166;2023-07-02T05:47:50;19.50;99.90
2913;DHT22;1466;48.778;9.166;2023-07-02T05:50:15;19.50;99.90
2913;DHT22;1466;48.778;9.166;2023-07-02T05:52:41;19.50;99.90
2913;DHT22;1466;48.778;9.166;2023-07-02T05:55:10;19.50;99.90
2913;DHT22;1466;48.778;9.166;2023-07-02T05:57:37;19.60;99.90
2913;DHT22;1466;48.778;9.166;2023-07-02T06:00:04;19.70;99.90
2913;DHT22;1466;48.778;9.166;2023-07-02T06:02:31;19.70;99.90
2913;DHT22;1466;48.778;9.166;2023-07-02T06:04:56;19.70;99.90
2913;DHT22;1466;48.778;9.166;2023-07-02T06:07:24;19.60;99.90
2913;DHT22;1466;48.778;9.166;2023-07-02T06:09:49;19.60;99.90
2913;DHT22;1466;48.778;9.166;2023-07-02T06:12:15;19.60;99.90
2913;DHT22;1466;48.778;9.166;2023-07-02T06:14:41;19.60;99.90
2913;DHT22;1466;48.778;9.166;2023-07-02T06:17:07;19.60;99.90
2913;DHT22;1466;48.778;9.166;2023-07-02T06:19:33;19.70;99.90
2913;DHT22;1466;48.778;9.166;2023-07-02T06:21:59;19.80;99.90
2913;DHT22;1466;48.778;9.166;2023-07-02T06:24:25;19.80;99.90
2913;DHT22;1466;48.778;9.166;2023-07-02T06:26:51;19.90;99.90
2913;DHT22;1466;48.778;9.166;2023-07-02T06:29:16;20.00;99.90
2913;DHT22;1466;48.778;9.166;2023-07-02T06:31:42;20.10;99.90
2913;DHT22;1466;48.778;9.166;2023-07-02T06:34:08;20.30;99.90
2913;DHT22;1466;48.778;9.166;2023-07-02T06:36:34;20.40;99.90
2913;DHT22;1466;48.778;9.166;2023-07-02T06:39:00;20.40;99.90
2913;DHT22;1466;48.778;9.166;2023-07-02T06:41:26;20.50;99.90
2913;DHT22;1466;48.778;9.166;2023-07-02T06:43:52;20.60;99.90
2913;DHT22;1466;48.778;9.166;2023-07-02T06:46:18;20.70;99.90
2913;DHT22;1466;48.778;9.166;2023-07-02T06:48:43;20.70;99.90
2913;DHT22;1466;48.778;9.166;2023-07-02T06:51:09;20.70;99.80
2913;DHT22;1466;48.778;9.166;2023-07-02T06:53:37;20.60;99.90
2913;DHT22;1466;48.778;9.166;2023-07-02T06:56:03;20.70;99.30
2913;DHT22;1466;48.778;9.166;2023-07-02T06:58:30;20.70;99.40
2913;DHT22;1466;48.778;9.166;2023-07-02T07:00:56;20.70;99.40
2913;DHT22;1466;48.778;9.166;2023-07-02T07:03:21;20.70;99.20
2913;DHT22;1466;48.778;9.166;2023-07-02T07:05:47;20.70;99.20
2913;DHT22;1466;48.778;9.166;2023-07-02T07:08:13;20.80;99.30
2913;DHT22;1466;48.778;9.166;2023-07-02T07:10:38;20.80;99.30
2913;DHT22;1466;48.778;9.166;2023-07-02T07:13:04;20.80;99.30
2913;DHT22;1466;48.778;9.166;2023-07-02T07:15:33;20.90;99.30
2913;DHT22;1466;48.778;9.166;2023-07-02T07:18:00;21.00;99.20
2913;DHT22;1466;48.778;9.166;2023-07-02T07:20:26;21.00;98.70
2913;DHT22;1466;48.778;9.166;2023-07-02T07:22:51;20.90;98.00
2913;DHT22;1466;48.778;9.166;2023-07-02T07:25:17;20.80;97.80
2913;DHT22;1466;48.778;9.166;2023-07-02T07:27:42;20.90;98.00
2913;DHT22;1466;48.778;9.166;2023-07-02T07:30:08;20.90;97.60
2913;DHT22;1466;48.778;9.166;2023-07-02T07:32:34;21.00;97.20
2913;DHT22;1466;48.778;9.166;2023-07-02T07:34:59;21.00;96.40
2913;DHT22;1466;48.778;9.166;2023-07-02T07:37:25;21.10;96.30
2913;DHT22;1466;48.778;9.166;2023-07-02T07:39:51;21.20;96.10
2913;DHT22;1466;48.778;9.166;2023-07-02T07:42:16;21.20;95.50
2913;DHT22;1466;48.778;9.166;2023-07-02T07:44:44;21.30;95.60
2913;DHT22;1466;48.778;9.166;2023-07-02T07:47:09;21.40;95.50
2913;DHT22;1466;48.778;9.166;2023-07-02T07:49:35;21.50;94.80
2913;DHT22;1466;48.778;9.166;2023-07-02T07:52:01;21.50;94.40
2913;DHT22;1466;48.778;9.166;2023-07-02T07:54:26;21.50;94.10
2913;DHT22;1466;48.778;9.166;2023-07-02T07:56:52;21.50;94.20
2913;DHT22;1466;48.778;9.166;2023-07-02T07:59:17;21.50;94.10
2913;DHT22;1466;48.778;9.166;2023-07-02T08:01:43;21.60;93.80
2913;DHT22;1466;48.778;9.166;2023-07-02T08:04:08;21.60;93.40
2913;DHT22;1466;48.778;9.166;2023-07-02T08:06:34;21.70;93.60
2913;DHT22;1466;48.778;9.166;2023-07-02T08:09:00;21.70;93.20
2913;DHT22;1466;48.778;9.166;2023-07-02T08:11:25;21.60;93.20
2913;DHT22;1466;48.778;9.166;2023-07-02T08:13:51;21.50;93.20
2913;DHT22;1466;48.778;9.166;2023-07-02T08:16:16;21.50;93.30
2913;DHT22;1466;48.778;9.166;2023-07-02T08:18:42;21.50;93.10
2913;DHT22;1466;48.778;9.166;2023-07-02T08:21:07;21.40;93.20
2913;DHT22;1466;48.778;9.166;2023-07-02T08:23:33;21.50;93.20
2913;DHT22;1466;48.778;9.166;2023-07-02T08:25:59;21.50;93.10
2913;DHT22;1466;48.778;9.166;2023-07-02T08:28:25;21.50;93.00
2913;DHT22;1466;48.778;9.166;2023-07-02T08:30:50;21.60;92.60
2913;DHT22;1466;48.778;9.166;2023-07-02T08:33:16;21.60;92.70
2913;DHT22;1466;48.778;9.166;2023-07-02T08:35:41;21.70;92.40
2913;DHT22;1466;48.778;9.166;2023-07-02T08:38:07;21.70;92.30
2913;DHT22;1466;48.778;9.166;2023-07-02T08:40:33;21.80;92.20
2913;DHT22;1466;48.778;9.166;2023-07-02T08:42:59;21.90;92.00
2913;DHT22;1466;48.778;9.166;2023-07-02T08:45:25;21.90;91.50
2913;DHT22;1466;48.778;9.166;2023-07-02T08:47:52;22.00;91.50
2913;DHT22;1466;48.778;9.166;2023-07-02T08:50:22;21.90;91.50
2913;DHT22;1466;48.778;9.166;2023-07-02T08:52:48;22.10;91.60
2913;DHT22;1466;48.778;9.166;2023-07-02T08:55:13;22.30;91.50
2913;DHT22;1466;48.778;9.166;2023-07-02T08:57:40;22.40;91.00
2913;DHT22;1466;48.778;9.166;2023-07-02T09:00:11;22.50;90.00
2913;DHT22;1466;48.778;9.166;2023-07-02T09:02:37;22.50;88.90
2913;DHT22;1466;48.778;9.166;2023-07-02T09:05:03;22.40;87.40
2913;DHT22;1466;48.778;9.166;2023-07-02T09:07:29;22.40;87.10
2913;DHT22;1466;48.778;9.166;2023-07-02T09:09:55;22.60;86.90
2913;DHT22;1466;48.778;9.166;2023-07-02T09:12:27;22.70;85.90
2913;DHT22;1466;48.778;9.166;2023-07-02T09:14:57;22.90;86.20
2913;DHT22;1466;48.778;9.166;2023-07-02T09:17:28;23.00;85.80
2913;DHT22;1466;48.778;9.166;2023-07-02T09:19:54;23.20;84.50
2913;DHT22;1466;48.778;9.166;2023-07-02T09:22:20;23.20;85.10
2913;DHT22;1466;48.778;9.166;2023-07-02T09:24:56;23.20;84.50
2913;DHT22;1466;48.778;9.166;2023-07-02T09:27:39;23.00;84.40
2913;DHT22;1466;48.778;9.166;2023-07-02T09:30:12;22.90;85.10
2913;DHT22;1466;48.778;9.166;2023-07-02T09:32:39;22.90;85.30
2913;DHT22;1466;48.778;9.166;2023-07-02T09:35:05;23.00;85.40
2913;DHT22;1466;48.778;9.166;2023-07-02T09:37:31;23.10;85.10
2913;DHT22;1466;48.778;9.166;2023-07-02T09:39:57;23.30;85.00
2913;DHT22;1466;48.778;9.166;2023-07-02T09:42:25;23.50;84.10
2913;DHT22;1466;48.778;9.166;2023-07-02T09:44:52;23.80;83.60
2913;DHT22;1466;48.778;9.166;2023-07-02T09:47:21;24.50;81.90
2913;DHT22;1466;48.778;9.166;2023-07-02T09:50:04;25.10;79.80
2913;DHT22;1466;48.778;9.166;2023-07-02T09:52:34;25.40;78.30
2913;DHT22;1466;48.778;9.166;2023-07-02T09:55:00;25.70;77.60
2913;DHT22;1466;48.778;9.166;2023-07-02T09:57:26;26.00;75.80
2913;DHT22;1466;48.778;9.166;2023-07-02T09:59:53;26.30;75.20
2913;DHT22;1466;48.778;9.166;2023-07-02T10:02:19;26.40;75.20
2913;DHT22;1466;48.778;9.166;2023-07-02T10:04:46;26.90;75.00
2913;DHT22;1466;48.778;9.166;2023-07-02T10:07:25;26.70;73.80
2913;DHT22;1466;48.778;9.166;2023-07-02T10:09:51;26.10;74.00
2913;DHT22;1466;48.778;9.166;2023-07-02T10:12:18;25.60;75.50
2913;DHT22;1466;48.778;9.166;2023-07-02T10:14:44;25.60;76.40
2913;DHT22;1466;48.778;9.166;2023-07-02T10:17:10;25.90;75.60
2913;DHT22;1466;48.778;9.166;2023-07-02T10:19:35;26.20;74.80
2913;DHT22;1466;48.778;9.166;2023-07-02T10:22:04;26.40;74.30
2913;DHT22;1466;48.778;9.166;2023-07-02T10:24:32;26.40;74.20
2913;DHT22;1466;48.778;9.166;2023-07-02T10:27:00;26.30;73.20
2913;DHT22;1466;48.778;9.166;2023-07-02T10:29:28;25.80;73.40
2913;DHT22;1466;48.778;9.166;2023-07-02T10:31:57;25.50;74.30
2913;DHT22;1466;48.778;9.166;2023-07-02T10:34:36;25.00;76.40
2913;DHT22;1466;48.778;9.166;2023-07-02T10:37:03;24.60;77.80
2913;DHT22;1466;48.778;9.166;2023-07-02T10:39:32;24.50;78.90
2913;DHT22;1466;48.778;9.166;2023-07-02T10:42:08;24.60;78.80
2913;DHT22;1466;48.778;9.166;2023-07-02T10:44:35;24.60;77.90
2913;DHT22;1466;48.778;9.166;2023-07-02T10:47:11;24.60;77.90
2913;DHT22;1466;48.778;9.166;2023-07-02T10:49:37;24.60;78.00
2913;DHT22;1466;48.778;9.166;2023-07-02T10:52:03;24.50;78.40
2913;DHT22;1466;48.778;9.166;2023-07-02T10:54:58;24.30;78.50
2913;DHT22;1466;48.778;9.166;2023-07-02T10:57:24;24.10;78.60
2913;DHT22;1466;48.778;9.166;2023-07-02T10:59:50;24.00;79.20
2913;DHT22;1466;48.778;9.166;2023-07-02T11:02:17;24.10;78.80
2913;DHT22;1466;48.778;9.166;2023-07-02T11:04:42;24.20;76.60
2913;DHT22;1466;48.778;9.166;2023-07-02T11:07:10;24.20;75.60
2913;DHT22;1466;48.778;9.166;2023-07-02T11:09:36;24.30;75.40
2913;DHT22;1466;48.778;9.166;2023-07-02T11:12:02;24.40;75.50
2913;DHT22;1466;48.778;9.166;2023-07-02T11:14:29;24.80;75.70
2913;DHT22;1466;48.778;9.166;2023-07-02T11:16:55;25.10;75.00
2913;DHT22;1466;48.778;9.166;2023-07-02T11:19:21;25.10;74.60
2913;DHT22;1466;48.778;9.166;2023-07-02T11:21:56;25.20;73.90
2913;DHT22;1466;48.778;9.166;2023-07-02T11:24:35;25.10;73.30
2913;DHT22;1466;48.778;9.166;2023-07-02T11:27:04;25.30;73.60
2913;DHT22;1466;48.778;9.166;2023-07-02T11:29:34;25.30;73.60
2913;DHT22;1466;48.778;9.166;2023-07-02T11:32:10;25.60;73.60
2913;DHT22;1466;48.778;9.166;2023-07-02T11:34:36;25.90;72.70
2913;DHT22;1466;48.778;9.166;2023-07-02T11:37:03;26.20;71.70
2913;DHT22;1466;48.778;9.166;2023-07-02T11:39:29;26.10;70.40
2913;DHT22;1466;48.778;9.166;2023-07-02T11:41:55;26.10;69.70
2913;DHT22;1466;48.778;9.166;2023-07-02T11:44:21;26.30;69.70
2913;DHT22;1466;48.778;9.166;2023-07-02T11:46:47;26.30;69.50
2913;DHT22;1466;48.778;9.166;2023-07-02T11:49:13;26.30;68.70
2913;DHT22;1466;48.778;9.166;2023-07-02T11:51:40;26.00;68.10
2913;DHT22;1466;48.778;9.166;2023-07-02T11:54:07;25.80;68.60
2913;DHT22;1466;48.778;9.166;2023-07-02T11:56:33;25.60;69.00
2913;DHT22;1466;48.778;9.166;2023-07-02T11:58:59;25.40;69.20
2913;DHT22;1466;48.778;9.166;2023-07-02T12:01:25;25.30;69.30
2913;DHT22;1466;48.778;9.166;2023-07-02T12:03:51;25.20;69.30
2913;DHT22;1466;48.778;9.166;2023-07-02T12:06:17;25.30;68.50
2913;DHT22;1466;48.778;9.166;2023-07-02T12:08:42;25.30;67.60
2913;DHT22;1466;48.778;9.166;2023-07-02T12:11:08;25.50;67.40
2913;DHT22;1466;48.778;9.166;2023-07-02T12:13:34;25.50;65.50
2913;DHT22;1466;48.778;9.166;2023-07-02T12:16:00;25.50;65.70
2913;DHT22;1466;48.778;9.166;2023-07-02T12:18:25;25.50;66.00
2913;DHT22;1466;48.778;9.166;2023-07-02T12:20:51;25.50;65.90
2913;DHT22;1466;48.778;9.166;2023-07-02T12:23:16;25.60;65.70
2913;DHT22;1466;48.778;9.166;2023-07-02T12:25:42;25.70;66.10
2913;DHT22;1466;48.778;9.166;2023-07-02T12:28:08;25.80;65.90
2913;DHT22;1466;48.778;9.166;2023-07-02T12:30:33;25.70;66.10
2913;DHT22;1466;48.778;9.166;2023-07-02T12:32:59;25.70;65.80
2913;DHT22;1466;48.778;9.166;2023-07-02T12:35:24;25.80;65.70
2913;DHT22;1466;48.778;9.166;2023-07-02T12:37:51;25.90;65.10
2913;DHT22;1466;48.778;9.166;2023-07-02T12:40:18;26.00;65.10
2913;DHT22;1466;48.778;9.166;2023-07-02T12:42:45;26.10;64.80
2913;DHT22;1466;48.778;9.166;2023-07-02T12:45:11;26.20;64.30
2913;DHT22;1466;48.778;9.166;2023-07-02T12:47:38;26.10;63.80
2913;DHT22;1466;48.778;9.166;2023-07-02T12:50:05;26.00;62.70
2913;DHT22;1466;48.778;9.166;2023-07-02T12:52:30;25.80;62.70
2913;DHT22;1466;48.778;9.166;2023-07-02T12:54:56;25.90;63.40
2913;DHT22;1466;48.778;9.166;2023-07-02T12:57:22;25.90;63.30
2913;DHT22;1466;48.778;9.166;2023-07-02T12:59:47;26.00;63.70
2913;DHT22;1466;48.778;9.166;2023-07-02T13:02:13;26.10;63.70
2913;DHT22;1466;48.778;9.166;2023-07-02T13:04:39;26.00;62.90
2913;DHT22;1466;48.778;9.166;2023-07-02T13:07:05;26.00;62.50
2913;DHT22;1466;48.778;9.166;2023-07-02T13:09:30;26.10;62.50
2913;DHT22;1466;48.778;9.166;2023-07-02T13:11:56;26.00;62.60
2913;DHT22;1466;48.778;9.166;2023-07-02T13:14:21;25.90;62.50
2913;DHT22;1466;48.778;9.166;2023-07-02T13:16:47;25.70;61.70
2913;DHT22;1466;48.778;9.166;2023-07-02T13:19:13;25.80;62.30
2913;DHT22;1466;48.778;9.166;2023-07-02T13:21:38;26.00;62.50
2913;DHT22;1466;48.778;9.166;2023-07-02T13:24:04;26.00;61.70
2913;DHT22;1466;48.778;9.166;2023-07-02T13:26:30;26.00;61.40
2913;DHT22;1466;48.778;9.166;2023-07-02T13:28:55;26.10;61.70
2913;DHT22;1466;48.778;9.166;2023-07-02T13:31:21;26.10;61.00
2913;DHT22;1466;48.778;9.166;2023-07-02T13:33:47;25.80;60.70
2913;DHT22;1466;48.778;9.166;2023-07-02T13:36:12;25.80;61.30
2913;DHT22;1466;48.778;9.166;2023-07-02T13:38:38;25.80;61.40
2913;DHT22;1466;48.778;9.166;2023-07-02T13:41:04;25.90;62.10
2913;DHT22;1466;48.778;9.166;2023-07-02T13:43:29;25.90;61.50
2913;DHT22;1466;48.778;9.166;2023-07-02T13:45:55;25.80;61.70
2913;DHT22;1466;48.778;9.166;2023-07-02T13:48:21;25.80;61.70
2913;DHT22;1466;48.778;9.166;2023-07-02T13:50:46;25.90;60.90
2913;DHT22;1466;48.778;9.166;2023-07-02T13:53:12;26.00;61.20
2913;DHT22;1466;48.778;9.166;2023-07-02T13:55:37;26.00;61.20
2913;DHT22;1466;48.778;9.166;2023-07-02T13:58:03;26.00;60.70
2913;DHT22;1466;48.778;9.166;2023-07-02T14:00:29;26.10;60.90
2913;DHT22;1466;48.778;9.166;2023-07-02T14:02:55;26.30;61.00
2913;DHT22;1466;48.778;9.166;2023-07-02T14:05:21;26.10;59.90
2913;DHT22;1466;48.778;9.166;2023-07-02T14:07:47;26.10;60.10
2913;DHT22;1466;48.778;9.166;2023-07-02T14:10:14;26.30;60.30
2913;DHT22;1466;48.778;9.166;2023-07-02T14:12:41;26.10;60.10
2913;DHT22;1466;48.778;9.166;2023-07-02T14:15:07;26.10;60.30
2913;DHT22;1466;48.778;9.166;2023-07-02T14:17:33;26.10;60.60
2913;DHT22;1466;48.778;9.166;2023-07-02T14:19:59;26.10;60.90
2913;DHT22;1466;48.778;9.166;2023-07-02T14:22:24;26.10;60.50
2913;DHT22;1466;48.778;9.166;2023-07-02T14:24:50;26.20;60.80
2913;DHT22;1466;48.778;9.166;2023-07-02T14:27:16;26.20;60.30
2913;DHT22;1466;48.778;9.166;2023-07-02T14:29:42;26.20;60.10
2913;DHT22;1466;48.778;9.166;2023-07-02T14:32:08;26.30;60.20
2913;DHT22;1466;48.778;9.166;2023-07-02T14:34:33;26.40;60.20
2913;DHT22;1466;48.778;9.166;2023-07-02T14:37:01;26.40;60.00
2913;DHT22;1466;48.778;9.166;2023-07-02T14:39:27;26.30;60.10
2913;DHT22;1466;48.778;9.166;2023-07-02T14:41:52;26.40;60.30
2913;DHT22;1466;48.778;9.166;2023-07-02T14:44:18;26.40;60.00
2913;DHT22;1466;48.778;9.166;2023-07-02T14:46:44;26.40;60.10
2913;DHT22;1466;48.778;9.166;2023-07-02T14:49:09;26.50;60.00
2913;DHT22;1466;48.778;9.166;2023-07-02T14:51:35;26.50;59.80
2913;DHT22;1466;48.778;9.166;2023-07-02T14:54:01;26.50;59.50
2913;DHT22;1466;48.778;9.166;2023-07-02T14:56:29;26.60;59.60
2913;DHT22;1466;48.778;9.166;2023-07-02T14:58:55;26.80;60.10
2913;DHT22;1466;48.778;9.166;2023-07-02T15:01:21;26.60;59.40
2913;DHT22;1466;48.778;9.166;2023-07-02T15:03:46;26.60;59.50
2913;DHT22;1466;48.778;9.166;2023-07-02T15:06:14;26.70;59.80
2913;DHT22;1466;48.778;9.166;2023-07-02T15:08:41;26.70;59.30
2913;DHT22;1466;48.778;9.166;2023-07-02T15:11:08;26.90;59.40
2913;DHT22;1466;48.778;9.166;2023-07-02T15:13:34;26.80;59.40
2913;DHT22;1466;48.778;9.166;2023-07-02T15:16:00;26.70;59.50
2913;DHT22;1466;48.778;9.166;2023-07-02T15:18:26;26.80;59.50
2913;DHT22;1466;48.778;9.166;2023-07-02T15:20:52;26.90;59.50
2913;DHT22;1466;48.778;9.166;2023-07-02T15:23:22;27.00;59.70
2913;DHT22;1466;48.778;9.166;2023-07-02T15:26:02;27.00;59.60
2913;DHT22;1466;48.778;9.166;2023-07-02T15:28:28;26.90;59.50
2913;DHT22;1466;48.778;9.166;2023-07-02T15:30:59;26.80;59.70
2913;DHT22;1466;48.778;9.166;2023-07-02T15:33:25;26.60;60.10
2913;DHT22;1466;48.778;9.166;2023-07-02T15:35:52;26.50;60.40
2913;DHT22;1466;48.778;9.166;2023-07-02T15:38:18;26.50;60.60
2913;DHT22;1466;48.778;9.166;2023-07-02T15:40:46;26.70;60.60
2913;DHT22;1466;48.778;9.166;2023-07-02T15:43:12;26.70;60.30
2913;DHT22;1466;48.778;9.166;2023-07-02T15:45:38;26.80;60.20
2913;DHT22;1466;48.778;9.166;2023-07-02T15:48:04;26.70;59.90
2913;DHT22;1466;48.778;9.166;2023-07-02T15:50:30;26.60;60.00
2913;DHT22;1466;48.778;9.166;2023-07-02T15:52:55;26.60;60.50
2913;DHT22;1466;48.778;9.166;2023-07-02T15:55:21;26.70;60.60
2913;DHT22;1466;48.778;9.166;2023-07-02T15:57:47;26.70;60.10
2913;DHT22;1466;48.778;9.166;2023-07-02T16:00:13;26.70;60.10
2913;DHT22;1466;48.778;9.166;2023-07-02T16:02:41;26.60;59.90
2913;DHT22;1466;48.778;9.166;2023-07-02T16:05:08;26.40;60.00